Time;durP1;ratioP1;P1;durP2;ratioP2;P2;SDS_P1;SDS_P2;PMS_P1;PMS_P2;Temp;Humidity;BMP_temperature;BMP_pressure;BME280_temperature;BME280_humidity;BME280_pressure;Samples;Min_cycle;Max_cycle;Signal;HPM_P1;HPM_P2
2022/11/15 00:00:06;;;;;;;21.13;13.27;;;;;;;;;;5014152;28;20635;-67
2022/11/15 00:02:31;;;;;;;20.10;13.13;;;;;;;;;;5008937;28;20229;-67
2022/11/15 00:04:57;;;;;;;24.08;14.15;;;;;;;;;;5017668;28;20186;-67
2022/11/15 00:07:22;;;;;;;23.63;14.25;;;;;;;;;;5025870;28;20650;-67
2022/11/15 00:09:47;;;;;;;23.88;14.23;;;;;;;;;;5021094;28;20218;-68
2022/11/15 00:12:13;;;;;;;24.10;13.68;;;;;;;;;;5027404;28;20182;-67
2022/11/15 00:14:38;;;;;;;26.17;14.02;;;;;;;;;;5027026;28;20197;-67
2022/11/15 00:17:04;;;;;;;22.83;13.35;;;;;;;;;;5021135;28;20274;-67
2022/11/15 00:19:29;;;;;;;22.10;13.43;;;;;;;;;;5013544;28;20178;-67
2022/11/15 00:21:54;;;;;;;22.40;14.45;;;;;;;;;;5013976;28;20186;-67
2022/11/15 00:24:20;;;;;;;21.55;13.63;;;;;;;;;;5013446;28;20264;-67
2022/11/15 00:26:45;;;;;;;25.38;14.05;;;;;;;;;;5018666;28;20206;-67
2022/11/15 00:29:10;;;;;;;23.00;14.47;;;;;;;;;;5023325;28;20466;-67
2022/11/15 00:31:36;;;;;;;21.13;13.77;;;;;;;;;;5010361;28;20232;-67
2022/11/15 00:34:01;;;;;;;23.17;14.90;;;;;;;;;;5016124;28;20226;-67
2022/11/15 00:36:26;;;;;;;21.93;13.63;;;;;;;;;;5013700;28;20241;-67
2022/11/15 00:38:52;;;;;;;29.87;15.50;;;;;;;;;;5018765;28;20371;-67
2022/11/15 00:41:17;;;;;;;26.33;14.68;;;;;;;;;;5019849;28;20539;-67
2022/11/15 00:43:43;;;;;;;24.42;14.70;;;;;;;;;;5018635;28;20682;-67
2022/11/15 00:46:09;;;;;;;26.90;15.33;;;;;;;;;;5011787;28;20282;-67
2022/11/15 00:48:35;;;;;;;26.92;15.30;;;;;;;;;;5017605;28;20662;-67
2022/11/15 00:51:01;;;;;;;27.95;16.00;;;;;;;;;;5018225;28;20212;-67
2022/11/15 00:53:26;;;;;;;25.35;15.25;;;;;;;;;;5011909;28;20666;-67
2022/11/15 00:55:52;;;;;;;29.65;16.23;;;;;;;;;;5009481;28;20207;-67
2022/11/15 00:58:17;;;;;;;31.50;16.20;;;;;;;;;;5014238;28;20190;-67
2022/11/15 01:00:43;;;;;;;28.37;15.77;;;;;;;;;;5023736;28;20178;-67
2022/11/15 01:03:08;;;;;;;23.98;14.77;;;;;;;;;;5026670;28;20186;-67
2022/11/15 01:05:33;;;;;;;29.67;16.37;;;;;;;;;;5022907;28;20190;-67
2022/11/15 01:07:59;;;;;;;32.22;16.40;;;;;;;;;;5013452;28;20529;-67
2022/11/15 01:10:25;;;;;;;30.88;17.90;;;;;;;;;;5024787;28;20213;-67
2022/11/15 01:12:51;;;;;;;33.15;16.75;;;;;;;;;;5025974;28;20189;-67
2022/11/15 01:15:16;;;;;;;30.75;16.27;;;;;;;;;;5026551;28;20198;-67
2022/11/15 01:17:42;;;;;;;30.88;17.08;;;;;;;;;;5014557;28;20225;-68
2022/11/15 01:20:08;;;;;;;33.15;17.58;;;;;;;;;;5015405;28;20273;-67
2022/11/15 01:22:33;;;;;;;30.88;17.13;;;;;;;;;;5012466;28;20717;-67
2022/11/15 01:24:59;;;;;;;30.70;16.02;;;;;;;;;;5016308;28;20258;-67
2022/11/15 01:27:24;;;;;;;34.17;18.17;;;;;;;;;;5007621;28;20218;-67
2022/11/15 01:29:50;;;;;;;35.30;18.23;;;;;;;;;;5013462;28;20229;-67
2022/11/15 01:32:15;;;;;;;35.83;19.20;;;;;;;;;;5021540;28;20202;-67
2022/11/15 01:34:40;;;;;;;35.03;18.90;;;;;;;;;;5022441;28;20222;-67
2022/11/15 01:37:06;;;;;;;33.55;16.98;;;;;;;;;;5013426;28;20194;-68
2022/11/15 01:39:31;;;;;;;32.03;18.65;;;;;;;;;;5020188;28;20559;-67
2022/11/15 01:41:56;;;;;;;38.25;19.60;;;;;;;;;;5026918;28;20236;-67
2022/11/15 01:44:34;;;;;;;37.85;20.15;;;;;;;;;;5024538;28;20174;-67
2022/11/15 01:47:02;;;;;;;36.42;19.48;;;;;;;;;;5021527;28;20243;-67
2022/11/15 01:49:32;;;;;;;41.63;20.52;;;;;;;;;;5013363;28;20551;-67
2022/11/15 01:51:58;;;;;;;39.22;20.95;;;;;;;;;;5025725;28;20178;-67
2022/11/15 01:54:24;;;;;;;38.90;20.25;;;;;;;;;;5015453;28;20211;-68
2022/11/15 01:56:55;;;;;;;41.78;19.67;;;;;;;;;;5011135;28;20392;-68
2022/11/15 01:59:21;;;;;;;35.97;19.73;;;;;;;;;;5012403;28;20200;-68
2022/11/15 02:01:47;;;;;;;36.45;20.38;;;;;;;;;;5025502;28;20178;-67
2022/11/15 02:04:20;;;;;;;40.80;20.52;;;;;;;;;;5021566;28;20228;-68
2022/11/15 02:06:47;;;;;;;35.47;19.70;;;;;;;;;;5021332;28;20585;-68
2022/11/15 02:09:13;;;;;;;38.63;21.20;;;;;;;;;;5016101;28;20189;-68
2022/11/15 02:11:38;;;;;;;40.13;21.00;;;;;;;;;;5021071;28;20536;-68
2022/11/15 02:14:05;;;;;;;33.40;19.33;;;;;;;;;;5021274;28;20210;-67
2022/11/15 02:16:50;;;;;;;28.95;17.73;;;;;;;;;;5028641;28;20725;-67
2022/11/15 02:19:31;;;;;;;34.60;18.73;;;;;;;;;;5015988;28;20190;-68
2022/11/15 02:22:24;;;;;;;37.78;20.50;;;;;;;;;;5026927;28;20194;-68
2022/11/15 02:25:08;;;;;;;40.13;20.85;;;;;;;;;;5024176;28;20254;-68
2022/11/15 02:28:01;;;;;;;36.13;21.27;;;;;;;;;;5017408;28;20643;-68
2022/11/15 02:30:44;;;;;;;40.60;20.43;;;;;;;;;;5015232;28;20360;-68
2022/11/15 02:33:28;;;;;;;36.95;21.25;;;;;;;;;;5019457;28;20201;-68
2022/11/15 02:36:08;;;;;;;40.15;22.33;;;;;;;;;;5015388;28;20242;-68
2022/11/15 02:38:52;;;;;;;39.00;22.58;;;;;;;;;;5016057;28;20237;-68
2022/11/15 02:41:28;;;;;;;42.28;24.52;;;;;;;;;;5020330;28;20192;-68
2022/11/15 02:44:07;;;;;;;42.55;24.05;;;;;;;;;;5024891;28;20585;-68
2022/11/15 02:49:24;;;;;;;44.55;22.13;;;;;;;;;;5022425;28;20267;-68
2022/11/15 02:51:52;;;;;;;43.17;24.20;;;;;;;;;;5028774;28;20538;-68
2022/11/15 02:54:22;;;;;;;42.55;22.30;;;;;;;;;;5024130;28;20202;-68
2022/11/15 02:56:48;;;;;;;41.53;24.00;;;;;;;;;;5014447;28;20194;-69
2022/11/15 02:59:36;;;;;;;35.03;21.58;;;;;;;;;;5018687;28;20585;-68
2022/11/15 03:02:24;;;;;;;40.60;22.80;;;;;;;;;;5021335;28;20183;-68
2022/11/15 03:05:26;;;;;;;42.58;23.30;;;;;;;;;;5014116;28;20182;-68
2022/11/15 03:08:10;;;;;;;41.60;22.08;;;;;;;;;;5029801;28;20194;-69
2022/11/15 03:10:42;;;;;;;43.65;22.45;;;;;;;;;;5031022;28;20723;-68
2022/11/15 03:13:07;;;;;;;39.85;21.70;;;;;;;;;;5031786;28;20182;-68
2022/11/15 03:15:37;;;;;;;39.95;22.27;;;;;;;;;;5013815;28;20206;-68
2022/11/15 03:18:14;;;;;;;38.10;22.77;;;;;;;;;;5014950;28;20186;-68
2022/11/15 03:20:40;;;;;;;39.70;22.98;;;;;;;;;;5014168;28;20269;-68
2022/11/15 03:23:09;;;;;;;41.75;22.33;;;;;;;;;;5021158;28;20265;-68
2022/11/15 03:25:40;;;;;;;43.90;22.67;;;;;;;;;;5026941;28;20285;-68
2022/11/15 03:28:09;;;;;;;38.45;21.27;;;;;;;;;;5027996;28;20194;-68
2022/11/15 03:30:37;;;;;;;46.05;22.63;;;;;;;;;;5025825;28;20205;-68
2022/11/15 03:33:04;;;;;;;39.72;22.02;;;;;;;;;;5018649;28;20233;-68
2022/11/15 03:35:35;;;;;;;40.67;22.10;;;;;;;;;;5016624;28;20237;-68
2022/11/15 03:38:17;;;;;;;36.53;21.40;;;;;;;;;;5015166;28;20178;-68
2022/11/15 03:40:51;;;;;;;37.03;21.92;;;;;;;;;;5026669;28;20632;-68
2022/11/15 03:43:30;;;;;;;32.97;21.00;;;;;;;;;;5015087;28;20183;-68
2022/11/15 03:46:31;;;;;;;37.15;21.48;;;;;;;;;;5022311;28;20619;-68
2022/11/15 03:49:07;;;;;;;43.40;22.55;;;;;;;;;;5017689;28;20281;-68
2022/11/15 03:51:33;;;;;;;35.95;21.73;;;;;;;;;;5023024;28;20390;-69
2022/11/15 03:53:58;;;;;;;46.03;22.13;;;;;;;;;;5027357;28;20178;-68
2022/11/15 03:56:24;;;;;;;34.97;21.33;;;;;;;;;;5015699;28;20654;-69
2022/11/15 03:58:49;;;;;;;37.00;21.35;;;;;;;;;;5028778;28;20650;-68
2022/11/15 04:01:14;;;;;;;36.08;21.02;;;;;;;;;;5015935;28;20179;-68
2022/11/15 04:03:40;;;;;;;36.20;21.70;;;;;;;;;;5021921;28;20182;-68
2022/11/15 04:06:05;;;;;;;32.05;18.50;;;;;;;;;;5019336;28;20183;-68
2022/11/15 04:08:31;;;;;;;32.88;20.58;;;;;;;;;;5011461;28;20258;-68
2022/11/15 04:10:56;;;;;;;35.40;21.30;;;;;;;;;;5014831;28;20221;-68
2022/11/15 04:13:21;;;;;;;34.67;20.30;;;;;;;;;;5019022;28;20262;-68
2022/11/15 04:15:46;;;;;;;34.80;20.65;;;;;;;;;;5016724;28;20796;-68
2022/11/15 04:18:12;;;;;;;29.45;19.85;;;;;;;;;;5023312;28;20186;-68
2022/11/15 04:26:13;;;;;;;29.98;19.55;;;;;;;;;;5014596;28;20198;-68
2022/11/15 04:31:22;;;;;;;28.30;18.90;;;;;;;;;;5020788;28;20247;-68
2022/11/15 04:33:47;;;;;;;30.77;18.10;;;;;;;;;;5017803;28;20592;-68
2022/11/15 04:38:57;;;;;;;30.83;17.73;;;;;;;;;;5024432;28;20270;-68
2022/11/15 04:41:22;;;;;;;30.20;18.73;;;;;;;;;;5021611;28;20198;-68
2022/11/15 04:43:47;;;;;;;28.98;17.30;;;;;;;;;;5026392;28;20617;-68
2022/11/15 04:46:12;;;;;;;27.23;17.40;;;;;;;;;;5018806;28;20660;-68
2022/11/15 04:48:38;;;;;;;24.35;17.05;;;;;;;;;;5020228;28;20201;-68
2022/11/15 04:51:03;;;;;;;28.98;18.17;;;;;;;;;;5021650;28;20221;-68
2022/11/15 04:53:29;;;;;;;30.55;17.90;;;;;;;;;;5024760;28;20197;-68
2022/11/15 04:55:54;;;;;;;28.92;18.63;;;;;;;;;;5020020;28;20213;-68
2022/11/15 04:58:19;;;;;;;26.98;16.65;;;;;;;;;;5013581;28;20188;-68
2022/11/15 05:00:44;;;;;;;27.38;17.70;;;;;;;;;;5023359;28;20178;-68
2022/11/15 05:05:54;;;;;;;27.30;17.77;;;;;;;;;;5017589;28;20255;-67
2022/11/15 05:08:19;;;;;;;26.52;18.48;;;;;;;;;;5023501;28;20670;-68
2022/11/15 05:10:45;;;;;;;29.42;17.38;;;;;;;;;;5012893;28;20478;-68
2022/11/15 05:13:10;;;;;;;26.20;17.77;;;;;;;;;;5014736;28;20234;-68
2022/11/15 05:15:35;;;;;;;31.85;18.70;;;;;;;;;;5021494;28;20775;-67
2022/11/15 05:18:01;;;;;;;27.92;18.13;;;;;;;;;;5019579;28;20521;-67
2022/11/15 05:20:26;;;;;;;30.83;17.55;;;;;;;;;;5011817;28;20270;-67
2022/11/15 05:22:53;;;;;;;30.33;17.58;;;;;;;;;;5026477;28;20186;-67
2022/11/15 05:25:19;;;;;;;27.60;18.02;;;;;;;;;;5021856;28;20612;-67
2022/11/15 05:27:44;;;;;;;27.65;17.80;;;;;;;;;;5021289;28;20202;-67
2022/11/15 05:30:10;;;;;;;28.25;17.30;;;;;;;;;;5011052;28;20189;-67
2022/11/15 05:32:36;;;;;;;25.00;18.02;;;;;;;;;;5018655;28;20596;-67
2022/11/15 05:35:02;;;;;;;33.40;18.25;;;;;;;;;;5010723;28;20238;-67
2022/11/15 05:37:28;;;;;;;28.98;16.75;;;;;;;;;;5021729;28;20195;-67
2022/11/15 05:39:54;;;;;;;28.67;18.00;;;;;;;;;;5021740;28;20190;-67
2022/11/15 05:42:19;;;;;;;27.48;18.65;;;;;;;;;;5021245;28;20194;-67
2022/11/15 05:44:48;;;;;;;35.33;18.33;;;;;;;;;;5009459;28;20175;-67
2022/11/15 05:47:20;;;;;;;27.27;17.52;;;;;;;;;;5025793;28;20189;-67
2022/11/15 05:49:47;;;;;;;22.70;14.98;;;;;;;;;;5012924;28;20187;-67
2022/11/15 05:52:18;;;;;;;24.67;17.13;;;;;;;;;;5021710;28;20206;-68
2022/11/15 05:54:43;;;;;;;24.88;16.30;;;;;;;;;;5024374;28;20287;-68
2022/11/15 05:57:09;;;;;;;26.95;16.73;;;;;;;;;;5028395;28;20206;-68
2022/11/15 05:59:35;;;;;;;24.35;16.98;;;;;;;;;;5018352;28;20182;-68
2022/11/15 06:02:00;;;;;;;25.95;16.77;;;;;;;;;;5014571;28;20190;-67
2022/11/15 06:04:26;;;;;;;24.38;15.68;;;;;;;;;;5016654;28;20589;-67
2022/11/15 06:06:51;;;;;;;27.38;17.48;;;;;;;;;;5010457;28;20427;-67
2022/11/15 06:09:16;;;;;;;27.48;16.95;;;;;;;;;;5008971;28;20210;-68
2022/11/15 06:11:42;;;;;;;28.75;17.25;;;;;;;;;;5011196;28;20179;-68
2022/11/15 06:14:07;;;;;;;23.77;16.95;;;;;;;;;;5010173;28;20198;-69
2022/11/15 06:16:32;;;;;;;30.25;17.90;;;;;;;;;;5014137;28;20597;-68
2022/11/15 06:18:58;;;;;;;27.23;17.65;;;;;;;;;;5019434;28;20551;-68
2022/11/15 06:21:23;;;;;;;27.05;18.27;;;;;;;;;;5019973;28;20213;-69
2022/11/15 06:23:49;;;;;;;23.70;17.38;;;;;;;;;;5025094;28;20209;-67
2022/11/15 06:26:14;;;;;;;24.48;17.35;;;;;;;;;;5020878;28;20182;-67
2022/11/15 06:28:39;;;;;;;25.50;17.23;;;;;;;;;;5026579;28;20182;-69
2022/11/15 06:31:10;;;;;;;26.42;17.95;;;;;;;;;;5020124;28;20616;-67
2022/11/15 06:33:36;;;;;;;29.48;18.75;;;;;;;;;;5012967;28;20639;-67
2022/11/15 06:36:10;;;;;;;27.10;18.45;;;;;;;;;;5015454;28;20214;-69
2022/11/15 06:38:36;;;;;;;28.52;19.75;;;;;;;;;;5018244;28;20257;-69
2022/11/15 06:41:07;;;;;;;27.45;19.85;;;;;;;;;;5018570;28;20273;-69
2022/11/15 06:43:34;;;;;;;28.60;18.88;;;;;;;;;;5012921;28;20214;-68
2022/11/15 06:46:00;;;;;;;28.40;20.15;;;;;;;;;;5017576;28;20281;-68
2022/11/15 06:48:26;;;;;;;25.98;19.58;;;;;;;;;;5015864;28;20700;-68
2022/11/15 06:50:59;;;;;;;28.30;20.35;;;;;;;;;;5019723;28;20179;-68
2022/11/15 06:53:26;;;;;;;25.75;19.48;;;;;;;;;;5026060;28;20553;-68
2022/11/15 06:55:51;;;;;;;26.92;19.33;;;;;;;;;;5017184;28;20787;-68
2022/11/15 06:58:17;;;;;;;25.63;18.65;;;;;;;;;;5021397;28;20183;-68
2022/11/15 07:00:43;;;;;;;24.65;19.80;;;;;;;;;;5013023;28;20328;-68
2022/11/15 07:03:09;;;;;;;24.95;19.20;;;;;;;;;;5016609;28;20231;-69
2022/11/15 07:05:35;;;;;;;26.23;20.25;;;;;;;;;;5013877;28;20174;-68
2022/11/15 07:08:00;;;;;;;26.58;20.08;;;;;;;;;;5014911;28;20193;-69
2022/11/15 07:10:26;;;;;;;25.85;18.67;;;;;;;;;;5013335;28;20190;-69
2022/11/15 07:12:53;;;;;;;26.13;19.08;;;;;;;;;;5011982;28;20269;-68
2022/11/15 07:15:22;;;;;;;25.67;18.27;;;;;;;;;;5011822;28;20207;-68
2022/11/15 07:17:48;;;;;;;25.42;18.92;;;;;;;;;;5022884;28;20186;-68
2022/11/15 07:20:14;;;;;;;24.17;18.80;;;;;;;;;;5028525;28;20565;-70
2022/11/15 07:22:40;;;;;;;22.92;18.02;;;;;;;;;;5026739;28;20604;-69
2022/11/15 07:25:06;;;;;;;24.55;18.35;;;;;;;;;;5011879;28;20198;-69
2022/11/15 07:27:31;;;;;;;23.10;17.38;;;;;;;;;;5013361;28;20174;-66
2022/11/15 07:29:56;;;;;;;23.23;17.45;;;;;;;;;;5025835;28;20186;-67
2022/11/15 07:32:22;;;;;;;22.98;17.60;;;;;;;;;;5013727;28;20256;-67
2022/11/15 07:34:47;;;;;;;24.45;16.85;;;;;;;;;;5019492;28;20230;-67
2022/11/15 07:37:12;;;;;;;23.27;17.30;;;;;;;;;;5026502;28;20190;-67
2022/11/15 07:39:38;;;;;;;24.30;17.85;;;;;;;;;;5024612;28;20183;-67
2022/11/15 07:44:47;;;;;;;20.98;17.17;;;;;;;;;;5022062;28;20201;-67
2022/11/15 07:47:12;;;;;;;25.80;17.75;;;;;;;;;;5009193;28;20183;-67
2022/11/15 07:49:38;;;;;;;23.80;18.02;;;;;;;;;;5010029;28;20227;-67
2022/11/15 07:52:03;;;;;;;23.85;18.45;;;;;;;;;;5024709;28;20201;-67
2022/11/15 07:54:29;;;;;;;23.90;18.50;;;;;;;;;;5013860;28;20227;-67
2022/11/15 07:56:54;;;;;;;22.33;16.38;;;;;;;;;;5016809;28;20261;-67
2022/11/15 07:59:19;;;;;;;26.92;17.80;;;;;;;;;;5014710;28;20245;-67
2022/11/15 08:01:45;;;;;;;25.63;18.20;;;;;;;;;;5022885;28;20178;-67
2022/11/15 08:04:11;;;;;;;24.05;18.83;;;;;;;;;;5023180;28;20194;-67
2022/11/15 08:06:36;;;;;;;24.67;19.35;;;;;;;;;;5010779;28;20182;-67
2022/11/15 08:09:02;;;;;;;22.83;18.02;;;;;;;;;;5029508;28;20293;-67
2022/11/15 08:11:27;;;;;;;27.65;19.83;;;;;;;;;;5020910;28;20582;-67
2022/11/15 08:13:52;;;;;;;26.08;19.63;;;;;;;;;;5015423;28;20660;-67
2022/11/15 08:16:18;;;;;;;27.58;19.83;;;;;;;;;;5009424;28;20604;-67
2022/11/15 08:18:43;;;;;;;28.73;20.88;;;;;;;;;;5009087;28;20202;-67
2022/11/15 08:21:09;;;;;;;25.67;19.52;;;;;;;;;;5009044;28;20210;-67
2022/11/15 08:23:35;;;;;;;27.05;19.75;;;;;;;;;;5012419;28;20191;-67
2022/11/15 08:26:02;;;;;;;25.85;19.25;;;;;;;;;;5012293;28;20210;-68
2022/11/15 08:28:27;;;;;;;26.17;20.50;;;;;;;;;;5013558;28;20197;-67
2022/11/15 08:30:53;;;;;;;26.33;19.20;;;;;;;;;;5016353;28;20710;-67
2022/11/15 08:33:18;;;;;;;23.73;18.52;;;;;;;;;;5016211;28;20249;-68
2022/11/15 08:35:44;;;;;;;29.67;20.17;;;;;;;;;;5007917;28;20221;-68
2022/11/15 08:38:10;;;;;;;26.75;18.98;;;;;;;;;;5017439;28;20641;-67
2022/11/15 08:40:36;;;;;;;29.55;20.42;;;;;;;;;;5011423;28;20240;-67
2022/11/15 08:43:02;;;;;;;32.05;20.63;;;;;;;;;;5010510;28;20183;-68
2022/11/15 08:45:28;;;;;;;28.25;20.05;;;;;;;;;;5010751;28;20210;-67
2022/11/15 08:47:54;;;;;;;27.95;20.48;;;;;;;;;;5019387;28;20190;-68
2022/11/15 08:50:19;;;;;;;28.02;20.10;;;;;;;;;;5010354;28;20705;-68
2022/11/15 08:52:45;;;;;;;29.08;19.90;;;;;;;;;;5012995;28;20257;-68
2022/11/15 08:55:10;;;;;;;25.80;19.00;;;;;;;;;;5008440;28;20208;-68
2022/11/15 08:57:36;;;;;;;28.92;20.55;;;;;;;;;;5014504;28;20194;-69
2022/11/15 09:00:01;;;;;;;29.63;19.70;;;;;;;;;;5020312;28;20277;-68
2022/11/15 09:02:26;;;;;;;29.85;19.30;;;;;;;;;;5009314;28;20197;-68
2022/11/15 09:04:52;;;;;;;26.38;18.75;;;;;;;;;;5013635;28;20183;-67
2022/11/15 09:07:17;;;;;;;25.90;17.55;;;;;;;;;;5011767;28;20194;-67
2022/11/15 09:09:43;;;;;;;23.15;16.45;;;;;;;;;;5008266;28;20245;-67
2022/11/15 09:12:08;;;;;;;25.30;16.77;;;;;;;;;;5010652;28;20664;-67
2022/11/15 09:14:34;;;;;;;19.88;15.32;;;;;;;;;;5009208;28;20336;-67
2022/11/15 09:17:00;;;;;;;22.65;15.40;;;;;;;;;;5009808;28;20210;-68
2022/11/15 09:19:25;;;;;;;20.25;13.50;;;;;;;;;;5010987;28;20170;-68
2022/11/15 09:21:51;;;;;;;17.55;13.52;;;;;;;;;;5012203;28;20608;-67
2022/11/15 09:24:17;;;;;;;18.50;13.13;;;;;;;;;;5010890;28;20183;-67
2022/11/15 09:26:42;;;;;;;19.45;13.52;;;;;;;;;;5010893;28;20175;-67
2022/11/15 09:29:08;;;;;;;19.40;13.52;;;;;;;;;;5008346;28;20321;-67
2022/11/15 09:31:33;;;;;;;16.38;12.98;;;;;;;;;;5009180;28;20209;-67
2022/11/15 09:33:58;;;;;;;17.08;12.90;;;;;;;;;;5010577;28;20339;-67
2022/11/15 09:36:24;;;;;;;18.33;14.25;;;;;;;;;;5009809;28;20256;-67
2022/11/15 09:38:49;;;;;;;17.23;13.02;;;;;;;;;;5011434;28;20186;-67
2022/11/15 09:41:23;;;;;;;16.85;12.13;;;;;;;;;;5011345;28;20182;-67
2022/11/15 09:43:54;;;;;;;14.02;11.10;;;;;;;;;;5011530;28;20199;-67
2022/11/15 09:46:28;;;;;;;14.35;10.73;;;;;;;;;;5011160;28;20206;-67
2022/11/15 09:48:56;;;;;;;12.02;9.30;;;;;;;;;;5009614;28;20190;-67
2022/11/15 09:51:49;;;;;;;17.27;9.10;;;;;;;;;;5011592;28;20182;-66
2022/11/15 09:54:20;;;;;;;13.52;9.07;;;;;;;;;;5021438;28;20211;-66
2022/11/15 09:56:46;;;;;;;13.70;9.32;;;;;;;;;;5013075;28;20262;-66
2022/11/15 09:59:22;;;;;;;11.93;8.18;;;;;;;;;;5014441;28;20253;-66
2022/11/15 10:01:54;;;;;;;10.73;7.47;;;;;;;;;;5011136;28;20659;-66
2022/11/15 10:04:22;;;;;;;11.15;7.25;;;;;;;;;;5013599;28;20187;-67
2022/11/15 10:06:55;;;;;;;10.07;6.95;;;;;;;;;;5014004;28;20174;-67
2022/11/15 10:09:28;;;;;;;8.40;6.55;;;;;;;;;;5025828;28;20178;-67
2022/11/15 10:11:54;;;;;;;13.73;6.85;;;;;;;;;;5016974;28;20548;-67
2022/11/15 10:14:24;;;;;;;9.23;6.68;;;;;;;;;;5013522;28;20254;-68
2022/11/15 10:16:57;;;;;;;11.57;5.82;;;;;;;;;;5018007;28;20226;-67
2022/11/15 10:19:41;;;;;;;11.30;6.72;;;;;;;;;;5017112;28;20289;-67
2022/11/15 10:22:26;;;;;;;9.63;6.07;;;;;;;;;;5020960;28;20647;-67
2022/11/15 10:25:00;;;;;;;8.60;5.03;;;;;;;;;;5014745;28;20503;-68
2022/11/15 10:27:25;;;;;;;7.35;5.10;;;;;;;;;;5023942;28;20181;-67
2022/11/15 10:29:51;;;;;;;7.72;4.80;;;;;;;;;;5028784;28;20712;-67
2022/11/15 10:32:21;;;;;;;8.38;5.22;;;;;;;;;;5030077;28;20194;-68
2022/11/15 10:34:48;;;;;;;6.65;4.65;;;;;;;;;;5019511;28;20309;-67
2022/11/15 10:37:13;;;;;;;7.43;4.72;;;;;;;;;;5014632;28;20849;-68
2022/11/15 10:39:39;;;;;;;5.70;4.20;;;;;;;;;;5027747;28;20273;-67
2022/11/15 10:42:25;;;;;;;8.75;4.53;;;;;;;;;;5019380;28;20590;-67
2022/11/15 10:44:51;;;;;;;8.13;4.45;;;;;;;;;;5023627;28;20179;-67
2022/11/15 10:47:22;;;;;;;8.80;4.40;;;;;;;;;;5010422;28;20674;-67
2022/11/15 10:49:59;;;;;;;6.55;4.45;;;;;;;;;;5014469;28;20185;-67
2022/11/15 10:52:25;;;;;;;6.80;4.20;;;;;;;;;;5029947;28;20200;-68
2022/11/15 10:54:59;;;;;;;7.03;4.47;;;;;;;;;;5015316;28;20206;-68
2022/11/15 10:57:28;;;;;;;5.97;3.65;;;;;;;;;;5021990;28;20294;-68
2022/11/15 11:00:00;;;;;;;8.50;3.80;;;;;;;;;;5026791;28;20229;-68
2022/11/15 11:02:39;;;;;;;9.60;3.97;;;;;;;;;;5019317;28;20218;-68
2022/11/15 11:05:33;;;;;;;8.00;3.60;;;;;;;;;;5014702;28;20182;-68
2022/11/15 11:08:10;;;;;;;8.13;4.00;;;;;;;;;;5038334;28;20182;-68
2022/11/15 11:10:37;;;;;;;6.15;3.15;;;;;;;;;;5011806;28;20706;-68
2022/11/15 11:13:22;;;;;;;5.90;3.42;;;;;;;;;;5020169;28;20188;-68
2022/11/15 11:16:08;;;;;;;5.22;3.45;;;;;;;;;;5015723;28;20806;-68
2022/11/15 11:18:44;;;;;;;5.82;3.20;;;;;;;;;;5025656;28;20183;-68
2022/11/15 11:21:23;;;;;;;6.18;2.85;;;;;;;;;;5015186;28;20190;-68
2022/11/15 11:23:58;;;;;;;5.05;2.88;;;;;;;;;;5022437;28;20244;-68
2022/11/15 11:26:29;;;;;;;4.85;2.90;;;;;;;;;;5013983;28;20261;-68
2022/11/15 11:29:20;;;;;;;8.80;3.20;;;;;;;;;;5021730;28;20196;-68
2022/11/15 11:32:13;;;;;;;3.88;2.85;;;;;;;;;;5019736;28;20641;-68
2022/11/15 11:34:58;;;;;;;4.70;3.05;;;;;;;;;;5014739;28;20218;-68
2022/11/15 11:37:38;;;;;;;7.03;2.85;;;;;;;;;;5016399;28;20197;-68
2022/11/15 11:40:27;;;;;;;3.03;2.28;;;;;;;;;;5017170;28;20182;-68
2022/11/15 11:43:18;;;;;;;5.50;1.83;;;;;;;;;;5015573;28;20256;-68
2022/11/15 11:46:08;;;;;;;7.68;2.17;;;;;;;;;;5013084;28;20654;-68
2022/11/15 11:48:46;;;;;;;3.83;1.60;;;;;;;;;;5016519;28;20185;-68
2022/11/15 11:51:22;;;;;;;2.45;1.50;;;;;;;;;;5015360;28;20272;-68
2022/11/15 11:53:54;;;;;;;4.65;1.60;;;;;;;;;;5026065;28;20182;-68
2022/11/15 11:56:26;;;;;;;2.65;1.33;;;;;;;;;;5009983;28;20229;-68
2022/11/15 11:58:55;;;;;;;4.85;1.60;;;;;;;;;;5015381;28;20182;-68
2022/11/15 12:01:25;;;;;;;3.42;1.40;;;;;;;;;;5014165;28;20271;-68
2022/11/15 12:04:03;;;;;;;2.75;1.20;;;;;;;;;;5012663;28;20541;-68
2022/11/15 12:06:38;;;;;;;3.08;1.48;;;;;;;;;;5011207;28;20252;-68
2022/11/15 12:09:12;;;;;;;4.57;1.15;;;;;;;;;;5011228;28;20650;-68
2022/11/15 12:11:49;;;;;;;3.33;1.02;;;;;;;;;;5011827;28;20182;-68
2022/11/15 12:14:29;;;;;;;1.45;0.85;;;;;;;;;;5011673;28;20304;-68
2022/11/15 12:16:55;;;;;;;3.38;1.00;;;;;;;;;;5008203;28;20178;-68
2022/11/15 12:19:20;;;;;;;2.58;1.48;;;;;;;;;;5012228;28;20182;-68
2022/11/15 12:21:59;;;;;;;4.82;1.55;;;;;;;;;;5007623;28;20178;-68
2022/11/15 12:24:32;;;;;;;2.90;1.55;;;;;;;;;;5010209;28;20190;-68
2022/11/15 12:27:05;;;;;;;5.78;1.80;;;;;;;;;;5009981;28;20167;-68
2022/11/15 12:29:37;;;;;;;1.88;1.13;;;;;;;;;;5011418;28;20171;-68
2022/11/15 12:32:03;;;;;;;4.55;1.45;;;;;;;;;;5020797;28;20206;-68
2022/11/15 12:34:34;;;;;;;3.33;1.83;;;;;;;;;;5022750;28;20241;-68
2022/11/15 12:37:00;;;;;;;4.35;1.67;;;;;;;;;;5017599;28;20301;-68
2022/11/15 12:40:10;;;;;;;3.08;1.67;;;;;;;;;;5024664;28;20182;-68
2022/11/15 12:42:41;;;;;;;4.70;1.88;;;;;;;;;;5012838;28;20195;-68
2022/11/15 12:45:31;;;;;;;3.85;1.75;;;;;;;;;;5018873;28;20195;-68
2022/11/15 12:48:15;;;;;;;3.28;1.80;;;;;;;;;;5023696;28;20174;-68
2022/11/15 12:50:53;;;;;;;3.88;1.90;;;;;;;;;;5023232;28;20866;-68
2022/11/15 12:53:24;;;;;;;2.90;1.70;;;;;;;;;;5007681;28;20639;-68
2022/11/15 12:56:09;;;;;;;2.17;1.45;;;;;;;;;;5018422;28;20206;-68
2022/11/15 12:58:54;;;;;;;4.00;1.88;;;;;;;;;;5009124;28;20689;-68
2022/11/15 13:01:29;;;;;;;4.85;2.35;;;;;;;;;;5024096;28;20190;-68
2022/11/15 13:04:19;;;;;;;3.25;1.98;;;;;;;;;;5018130;28;20274;-68
2022/11/15 13:06:55;;;;;;;3.47;2.00;;;;;;;;;;5011140;28;20190;-68
2022/11/15 13:09:32;;;;;;;4.15;2.45;;;;;;;;;;5017655;28;20189;-68
2022/11/15 13:12:07;;;;;;;4.28;2.83;;;;;;;;;;5026292;28;20186;-68
2022/11/15 13:14:47;;;;;;;3.75;2.78;;;;;;;;;;5021715;28;20201;-68
2022/11/15 13:17:18;;;;;;;5.53;3.22;;;;;;;;;;5026929;28;20209;-68
2022/11/15 13:19:46;;;;;;;5.60;3.22;;;;;;;;;;5019887;28;20208;-68
2022/11/15 13:24:56;;;;;;;6.90;4.03;;;;;;;;;;5020183;28;20691;-68
2022/11/15 13:27:22;;;;;;;6.55;4.15;;;;;;;;;;5022706;28;20186;-68
2022/11/15 13:29:47;;;;;;;5.38;4.30;;;;;;;;;;5020821;28;20260;-68
2022/11/15 13:32:15;;;;;;;6.10;4.00;;;;;;;;;;5026805;28;20209;-68
2022/11/15 13:34:46;;;;;;;4.97;3.85;;;;;;;;;;5021409;28;20222;-68
2022/11/15 13:37:21;;;;;;;6.50;3.95;;;;;;;;;;5016309;28;20209;-68
2022/11/15 13:39:50;;;;;;;8.00;3.45;;;;;;;;;;5010539;28;20608;-68
2022/11/15 13:42:20;;;;;;;7.47;3.40;;;;;;;;;;5009846;28;20198;-68
2022/11/15 13:44:59;;;;;;;6.43;3.38;;;;;;;;;;5009505;28;20226;-68
2022/11/15 13:47:27;;;;;;;3.60;3.28;;;;;;;;;;5013019;28;20263;-68
2022/11/15 13:49:52;;;;;;;4.82;2.80;;;;;;;;;;5012641;28;20709;-67
2022/11/15 13:52:19;;;;;;;4.30;2.88;;;;;;;;;;5016999;28;20266;-69
2022/11/15 13:54:53;;;;;;;6.57;2.63;;;;;;;;;;5024014;28;20253;-68
2022/11/15 13:57:23;;;;;;;3.28;2.13;;;;;;;;;;5015058;28;20266;-68
2022/11/15 13:59:59;;;;;;;4.88;2.72;;;;;;;;;;5015007;28;20179;-69
2022/11/15 14:02:27;;;;;;;3.85;2.38;;;;;;;;;;5011476;28;20209;-68
2022/11/15 14:05:16;;;;;;;4.32;2.15;;;;;;;;;;5011718;28;20171;-68
2022/11/15 14:07:56;;;;;;;5.90;2.45;;;;;;;;;;5012660;28;20682;-68
2022/11/15 14:10:34;;;;;;;5.82;2.10;;;;;;;;;;5010424;28;20595;-68
2022/11/15 14:13:00;;;;;;;3.92;2.00;;;;;;;;;;5012728;28;20191;-68
2022/11/15 14:15:28;;;;;;;3.80;1.60;;;;;;;;;;5010685;28;20207;-68
2022/11/15 14:17:54;;;;;;;3.40;1.67;;;;;;;;;;5009991;28;20190;-68
2022/11/15 14:20:38;;;;;;;5.65;1.80;;;;;;;;;;5005902;28;20194;-68
2022/11/15 14:23:28;;;;;;;4.57;1.73;;;;;;;;;;5011352;28;20197;-67
2022/11/15 14:25:58;;;;;;;4.35;1.45;;;;;;;;;;5012766;28;20649;-68
2022/11/15 14:28:23;;;;;;;3.97;1.23;;;;;;;;;;5010598;28;20190;-67
2022/11/15 14:30:52;;;;;;;3.33;1.20;;;;;;;;;;5011704;28;20561;-68
2022/11/15 14:33:28;;;;;;;4.43;1.30;;;;;;;;;;5007645;28;20203;-68
2022/11/15 14:35:55;;;;;;;4.43;1.27;;;;;;;;;;5006946;28;20522;-67
2022/11/15 14:38:21;;;;;;;6.18;1.40;;;;;;;;;;5012499;28;20186;-68
2022/11/15 14:40:46;;;;;;;2.83;1.75;;;;;;;;;;5016683;28;20237;-68
2022/11/15 14:43:12;;;;;;;2.92;1.13;;;;;;;;;;5012710;28;20609;-67
2022/11/15 14:45:38;;;;;;;1.75;1.13;;;;;;;;;;5022394;28;20214;-67
2022/11/15 14:48:04;;;;;;;2.88;1.10;;;;;;;;;;5029220;28;20186;-67
2022/11/15 14:50:29;;;;;;;3.42;1.20;;;;;;;;;;5020227;28;20549;-68
2022/11/15 14:52:55;;;;;;;5.22;1.27;;;;;;;;;;5012637;28;20175;-67
2022/11/15 14:55:28;;;;;;;5.20;1.67;;;;;;;;;;5012903;28;20214;-68
2022/11/15 14:57:57;;;;;;;5.57;1.10;;;;;;;;;;4328093;28;10000862;-68
2022/11/15 15:00:22;;;;;;;3.47;0.90;;;;;;;;;;5024074;28;20182;-67
2022/11/15 15:02:50;;;;;;;2.90;1.10;;;;;;;;;;5023711;28;20537;-67